createdAt,value
2022-09-14T00:01:44.971Z,100.00
2022-09-14T00:04:20.153Z,100.00
2022-09-14T00:06:49.302Z,100.00
2022-09-14T00:09:22.635Z,100.00
2022-09-14T00:11:51.654Z,100.00
2022-09-14T00:14:21.081Z,100.00
2022-09-14T00:16:50.933Z,100.00
2022-09-14T00:19:25.868Z,100.00
2022-09-14T00:22:00.346Z,100.00
2022-09-14T00:24:31.345Z,100.00
2022-09-14T00:27:00.469Z,100.00
2022-09-14T00:29:28.845Z,100.00
2022-09-14T00:31:57.462Z,100.00
2022-09-14T00:34:25.879Z,100.00
2022-09-14T00:36:54.530Z,100.00
2022-09-14T00:39:25.425Z,100.00
2022-09-14T00:41:54.272Z,100.00
2022-09-14T00:44:22.684Z,100.00
2022-09-14T00:46:54.865Z,100.00
2022-09-14T00:49:32.386Z,100.00
2022-09-14T00:52:16.361Z,100.00
2022-09-14T00:54:50.099Z,100.00
2022-09-14T00:57:20.508Z,100.00
2022-09-14T00:59:52.465Z,100.00
2022-09-14T01:02:23.638Z,100.00
2022-09-14T01:04:52.459Z,100.00
2022-09-14T01:07:57.093Z,100.00
2022-09-14T01:11:05.928Z,100.00
2022-09-14T01:13:50.022Z,100.00
2022-09-14T01:17:02.527Z,100.00
2022-09-14T01:19:57.919Z,100.00
2022-09-14T01:22:59.813Z,100.00
2022-09-14T01:25:37.626Z,100.00
2022-09-14T01:28:13.793Z,97.94
2022-09-14T01:30:44.002Z,97.14
2022-09-14T01:33:25.678Z,95.72
2022-09-14T01:35:59.933Z,94.62
2022-09-14T01:38:38.555Z,93.50
2022-09-14T01:41:12.560Z,92.52
2022-09-14T01:43:50.365Z,91.50
2022-09-14T01:46:25.898Z,90.74
2022-09-14T01:49:12.904Z,90.08
2022-09-14T01:51:59.926Z,90.00
2022-09-14T01:54:34.718Z,89.75
2022-09-14T01:57:40.539Z,89.75
2022-09-14T02:00:16.380Z,89.51
2022-09-14T02:03:04.325Z,89.46
2022-09-14T02:05:44.426Z,89.40
2022-09-14T02:08:12.945Z,89.38
2022-09-14T02:10:41.796Z,89.81
2022-09-14T02:13:10.208Z,89.75
2022-09-14T02:15:39.054Z,89.31
2022-09-14T02:18:07.660Z,88.76
2022-09-14T02:20:52.118Z,88.93
2022-09-14T02:23:20.835Z,89.43
2022-09-14T02:25:49.534Z,89.39
2022-09-14T02:28:17.972Z,89.43
2022-09-14T02:31:25.201Z,88.82
2022-09-14T02:34:25.606Z,89.31
2022-09-14T02:37:15.727Z,89.08
2022-09-14T02:39:59.589Z,89.33
2022-09-14T02:42:51.749Z,89.73
2022-09-14T02:45:41.831Z,89.42
2022-09-14T02:48:24.198Z,87.81
2022-09-14T02:51:28.871Z,88.38
2022-09-14T02:54:07.560Z,88.32
2022-09-14T02:56:37.368Z,88.73
2022-09-14T02:59:06.068Z,88.76
2022-09-14T03:01:34.634Z,88.63
2022-09-14T03:04:03.220Z,87.97
2022-09-14T03:06:31.424Z,87.86
2022-09-14T03:08:59.817Z,87.72
2022-09-14T03:11:28.290Z,87.30
2022-09-14T03:13:56.665Z,86.98
2022-09-14T03:16:25.212Z,87.00
2022-09-14T03:18:53.755Z,87.25
2022-09-14T03:21:22.182Z,87.27
2022-09-14T03:23:55.124Z,86.21
2022-09-14T03:26:25.006Z,84.85
2022-09-14T03:28:55.793Z,85.71
2022-09-14T03:31:24.481Z,86.25
2022-09-14T03:34:00.584Z,86.63
2022-09-14T03:36:31.413Z,86.06
2022-09-14T03:39:01.875Z,85.33
2022-09-14T03:41:30.771Z,85.18
2022-09-14T03:43:59.130Z,85.47
2022-09-14T03:46:27.942Z,85.56
2022-09-14T03:48:56.892Z,85.34
2022-09-14T03:51:25.384Z,85.16
2022-09-14T03:53:53.774Z,84.96
2022-09-14T03:56:23.911Z,84.21
2022-09-14T03:58:52.323Z,83.66
2022-09-14T04:01:23.057Z,83.19
2022-09-14T04:03:52.090Z,82.06
2022-09-14T04:06:20.713Z,81.71
2022-09-14T04:08:49.271Z,81.83
2022-09-14T04:11:24.794Z,82.17
2022-09-14T04:13:54.033Z,81.89
2022-09-14T04:16:23.190Z,82.27
2022-09-14T04:18:51.693Z,81.82
2022-09-14T04:21:23.128Z,81.59
2022-09-14T04:26:44.354Z,81.74
2022-09-14T04:29:13.029Z,82.04
2022-09-14T04:31:41.489Z,81.93
2022-09-14T04:34:11.079Z,82.41
2022-09-14T04:36:39.421Z,82.63
2022-09-14T04:39:07.970Z,82.63
2022-09-14T04:41:36.464Z,81.23
2022-09-14T04:44:04.928Z,81.20
2022-09-14T04:46:36.153Z,81.23
2022-09-14T04:49:05.068Z,80.84
2022-09-14T04:51:34.451Z,80.80
2022-09-14T04:56:38.093Z,81.61
2022-09-14T04:59:07.016Z,81.38
2022-09-14T05:01:45.008Z,80.82
2022-09-14T05:04:13.808Z,80.99
2022-09-14T05:06:44.317Z,81.11
2022-09-14T05:09:18.401Z,80.91
2022-09-14T05:11:47.227Z,81.09
2022-09-14T05:14:15.769Z,81.11
2022-09-14T05:16:45.445Z,80.86
2022-09-14T05:19:17.959Z,81.14
2022-09-14T05:21:47.159Z,80.64
2022-09-14T05:24:19.109Z,80.37
2022-09-14T05:26:48.304Z,80.35
2022-09-14T05:29:19.258Z,80.89
2022-09-14T05:31:47.893Z,81.43
2022-09-14T05:34:16.373Z,80.11
2022-09-14T05:36:44.719Z,79.79
2022-09-14T05:39:13.117Z,80.22
2022-09-14T05:41:41.504Z,80.77
2022-09-14T05:44:09.827Z,80.40
2022-09-14T05:46:38.227Z,80.78
2022-09-14T05:49:06.773Z,79.37
2022-09-14T05:51:35.419Z,79.04
2022-09-14T05:54:09.317Z,78.33
2022-09-14T05:56:37.693Z,78.09
2022-09-14T05:59:06.256Z,78.20
2022-09-14T06:01:34.887Z,78.11
2022-09-14T06:04:04.602Z,78.13
2022-09-14T06:06:34.012Z,77.38
2022-09-14T06:09:02.710Z,77.29
2022-09-14T06:11:33.828Z,77.26
2022-09-14T06:14:02.252Z,76.68
2022-09-14T06:16:31.097Z,76.40
2022-09-14T06:19:00.618Z,76.11
2022-09-14T06:21:35.029Z,76.59
2022-09-14T06:24:03.470Z,76.61
2022-09-14T06:26:32.190Z,76.64
2022-09-14T06:29:00.612Z,74.49
2022-09-14T06:31:29.080Z,74.64
2022-09-14T06:33:57.452Z,74.75
2022-09-14T06:36:27.920Z,74.93
2022-09-14T06:38:57.049Z,74.72
2022-09-14T06:41:29.107Z,75.41
2022-09-14T06:43:58.899Z,75.25
2022-09-14T06:46:33.290Z,73.67
2022-09-14T06:49:02.687Z,73.95
2022-09-14T06:51:37.436Z,73.17
2022-09-14T06:54:06.977Z,72.90
2022-09-14T06:56:41.901Z,72.35
2022-09-14T06:59:13.305Z,73.51
2022-09-14T07:01:42.207Z,73.84
2022-09-14T07:04:10.996Z,74.34
2022-09-14T07:06:50.830Z,75.08
2022-09-14T07:09:20.626Z,75.58
2022-09-14T07:11:49.194Z,76.22
2022-09-14T07:14:17.734Z,76.16
2022-09-14T07:16:46.101Z,75.73
2022-09-14T07:19:15.986Z,75.81
2022-09-14T07:21:44.401Z,75.99
2022-09-14T07:24:14.879Z,76.23
2022-09-14T07:26:43.911Z,76.42
2022-09-14T07:29:16.942Z,77.07
2022-09-14T07:31:54.000Z,77.85
2022-09-14T07:34:23.893Z,78.55
2022-09-14T07:36:52.204Z,78.79
2022-09-14T07:39:20.869Z,79.17
2022-09-14T07:41:49.485Z,79.59
2022-09-14T07:44:19.295Z,79.85
2022-09-14T07:46:48.337Z,79.10
2022-09-14T07:49:18.216Z,79.40
2022-09-14T07:51:46.936Z,79.02
2022-09-14T07:54:20.243Z,78.35
2022-09-14T07:56:49.326Z,78.60
2022-09-14T07:59:35.049Z,78.32
2022-09-14T08:02:08.854Z,78.12
2022-09-14T08:04:38.105Z,77.05
2022-09-14T08:07:07.345Z,76.86
2022-09-14T08:09:35.692Z,76.90
2022-09-14T08:12:05.922Z,76.77
2022-09-14T08:14:33.987Z,76.66
2022-09-14T08:17:02.509Z,77.06
2022-09-14T08:19:31.011Z,76.67
2022-09-14T08:21:59.419Z,76.78
2022-09-14T08:24:27.766Z,76.52
2022-09-14T08:26:56.076Z,76.05
2022-09-14T08:29:24.936Z,74.52
2022-09-14T08:31:53.512Z,75.03
2022-09-14T08:34:22.051Z,75.50
2022-09-14T08:36:50.649Z,76.04
2022-09-14T08:39:19.363Z,76.25
2022-09-14T08:41:52.547Z,76.82
2022-09-14T08:44:38.938Z,77.17
2022-09-14T08:47:14.797Z,77.13
2022-09-14T08:49:52.375Z,76.89
2022-09-14T08:52:39.631Z,77.54
2022-09-14T08:55:50.345Z,78.27
2022-09-14T08:58:40.609Z,78.34
2022-09-14T09:01:33.597Z,77.59
2022-09-14T09:04:51.008Z,77.32
2022-09-14T09:07:21.315Z,77.33
2022-09-14T09:09:55.646Z,77.19
2022-09-14T09:12:45.371Z,76.17
2022-09-14T09:15:27.674Z,75.07
2022-09-14T09:18:02.758Z,75.04
2022-09-14T09:20:39.661Z,74.29
2022-09-14T09:23:25.645Z,74.62
2022-09-14T09:25:54.114Z,73.80
2022-09-14T09:28:25.233Z,73.75
2022-09-14T09:30:55.610Z,72.13
2022-09-14T09:33:27.213Z,72.42
2022-09-14T09:35:56.458Z,71.51
2022-09-14T09:38:28.870Z,70.49
2022-09-14T09:41:05.791Z,69.72
2022-09-14T09:43:48.986Z,69.34
2022-09-14T09:46:18.740Z,70.02
2022-09-14T09:48:47.438Z,70.77
2022-09-14T09:51:30.290Z,69.88
2022-09-14T09:54:23.407Z,69.45
2022-09-14T09:57:05.333Z,69.27
2022-09-14T09:59:40.957Z,69.65
2022-09-14T10:02:33.393Z,69.06
2022-09-14T10:05:20.182Z,69.32
2022-09-14T10:07:53.310Z,69.81
2022-09-14T10:10:28.123Z,70.13
2022-09-14T10:12:58.132Z,70.46
2022-09-14T10:15:32.647Z,69.52
2022-09-14T10:18:20.230Z,69.16
2022-09-14T10:20:54.258Z,68.14
2022-09-14T10:23:22.566Z,68.61
2022-09-14T10:26:15.464Z,68.57
2022-09-14T10:28:49.695Z,69.03
2022-09-14T10:31:18.281Z,69.50
2022-09-14T10:33:48.616Z,69.42
2022-09-14T10:36:39.236Z,69.48
2022-09-14T10:39:31.191Z,70.38
2022-09-14T10:42:08.266Z,70.69
2022-09-14T10:45:06.078Z,70.75
2022-09-14T10:48:02.481Z,70.82
2022-09-14T10:50:50.944Z,72.70
2022-09-14T10:53:57.110Z,72.13
2022-09-14T10:56:59.758Z,73.41
2022-09-14T10:59:28.029Z,74.69
2022-09-14T11:02:12.492Z,77.77
2022-09-14T11:05:14.696Z,80.67
2022-09-14T11:08:01.072Z,81.01
2022-09-14T11:10:48.638Z,82.70
2022-09-14T11:14:07.617Z,86.18
2022-09-14T11:16:59.525Z,84.60
2022-09-14T11:19:49.151Z,85.74
2022-09-14T11:22:35.093Z,87.25
2022-09-14T11:25:11.455Z,86.95
2022-09-14T11:28:07.203Z,90.46
2022-09-14T11:30:43.336Z,91.74
2022-09-14T11:33:34.881Z,92.96
2022-09-14T11:36:11.138Z,92.30
2022-09-14T11:38:54.284Z,89.80
2022-09-14T11:41:30.208Z,89.31
2022-09-14T11:44:22.764Z,91.49
2022-09-14T11:47:21.468Z,91.33
2022-09-14T11:50:06.727Z,90.09
2022-09-14T11:52:35.245Z,90.51
2022-09-14T11:55:10.844Z,87.71
2022-09-14T11:57:39.387Z,89.01
2022-09-14T12:00:31.473Z,88.88
2022-09-14T12:03:16.121Z,90.00
2022-09-14T12:05:45.462Z,91.37
2022-09-14T12:08:29.823Z,91.32
2022-09-14T12:11:08.553Z,90.99
2022-09-14T12:13:38.088Z,92.83
2022-09-14T12:16:09.789Z,92.42
2022-09-14T12:18:40.442Z,91.88
2022-09-14T12:21:22.822Z,92.27
2022-09-14T12:23:57.611Z,93.06
2022-09-14T12:26:27.681Z,93.51
2022-09-14T12:29:02.591Z,95.51
2022-09-14T12:31:47.413Z,96.64
2022-09-14T12:34:22.711Z,95.69
2022-09-14T12:36:51.009Z,93.66
2022-09-14T12:39:34.301Z,94.96
2022-09-14T12:42:28.129Z,94.14
2022-09-14T12:44:56.548Z,93.43
2022-09-14T12:47:28.573Z,92.99
2022-09-14T12:50:00.469Z,93.25
2022-09-14T12:52:48.900Z,93.23
2022-09-14T12:55:46.988Z,94.40
2022-09-14T12:58:46.958Z,97.62
2022-09-14T13:01:48.558Z,97.89
2022-09-14T13:04:33.440Z,97.33
2022-09-14T13:07:07.356Z,98.07
2022-09-14T13:09:36.118Z,96.39
2022-09-14T13:12:07.370Z,98.91
2022-09-14T13:14:48.275Z,99.28
2022-09-14T13:17:17.349Z,98.50
2022-09-14T13:19:45.726Z,99.14
2022-09-14T13:22:23.963Z,100.00
2022-09-14T13:24:52.986Z,100.00
2022-09-14T13:27:49.015Z,100.00
2022-09-14T13:30:24.446Z,99.75
2022-09-14T13:32:57.710Z,98.24
2022-09-14T13:35:40.332Z,97.52
2022-09-14T13:38:19.776Z,96.65
2022-09-14T13:40:50.246Z,96.84
2022-09-14T13:43:19.839Z,96.64
2022-09-14T13:45:49.696Z,96.38
2022-09-14T13:48:20.158Z,97.24
2022-09-14T13:50:53.146Z,98.49
2022-09-14T13:53:56.864Z,98.28
2022-09-14T13:56:36.052Z,99.13
2022-09-14T13:59:10.181Z,99.84
2022-09-14T14:01:44.277Z,98.56
2022-09-14T14:04:37.714Z,98.32
2022-09-14T14:07:14.743Z,98.60
2022-09-14T14:09:50.923Z,99.11
2022-09-14T14:12:30.884Z,99.28
2022-09-14T14:15:03.309Z,99.19
2022-09-14T14:17:34.402Z,99.45
2022-09-14T14:20:25.007Z,99.39
2022-09-14T14:23:09.159Z,98.55
2022-09-14T14:25:45.833Z,98.84
2022-09-14T14:28:32.410Z,98.59
2022-09-14T14:31:07.800Z,98.34
2022-09-14T14:33:37.522Z,98.93
2022-09-14T14:36:09.905Z,98.52
2022-09-14T14:38:38.394Z,97.56
2022-09-14T14:41:13.585Z,98.88
2022-09-14T14:43:46.092Z,99.55
2022-09-14T14:46:15.921Z,99.87
2022-09-14T14:48:44.543Z,100.00
2022-09-14T14:51:16.160Z,100.00
2022-09-14T14:53:46.039Z,100.00
2022-09-14T14:56:15.317Z,100.00
2022-09-14T14:59:03.159Z,100.00
2022-09-14T15:01:31.776Z,100.00
2022-09-14T15:04:00.264Z,100.00
2022-09-14T15:06:28.930Z,100.00
2022-09-14T15:08:58.030Z,100.00
2022-09-14T15:11:26.428Z,99.87
2022-09-14T15:13:54.791Z,100.00
2022-09-14T15:16:23.159Z,99.38
2022-09-14T15:18:51.701Z,99.14
2022-09-14T15:21:20.054Z,99.02
2022-09-14T15:23:49.743Z,99.26
2022-09-14T15:26:18.137Z,99.65
2022-09-14T15:28:48.571Z,98.98
2022-09-14T15:31:17.067Z,100.00
2022-09-14T15:33:45.430Z,100.00
2022-09-14T15:36:14.097Z,98.36
2022-09-14T15:38:42.397Z,97.85
2022-09-14T15:41:13.474Z,97.93
2022-09-14T15:43:41.807Z,98.49
2022-09-14T15:46:10.181Z,99.20
2022-09-14T15:48:38.543Z,99.43
2022-09-14T15:51:12.322Z,99.11
2022-09-14T15:53:40.947Z,98.98
2022-09-14T15:56:14.509Z,99.84
2022-09-14T15:58:47.843Z,100.00
2022-09-14T16:01:18.675Z,99.88
2022-09-14T16:03:47.373Z,100.00
2022-09-14T16:06:16.409Z,100.00
2022-09-14T16:08:44.761Z,99.46
2022-09-14T16:11:13.278Z,98.68
2022-09-14T16:13:41.587Z,98.19
2022-09-14T16:16:13.479Z,97.39
2022-09-14T16:18:42.315Z,98.05
2022-09-14T16:21:20.921Z,98.64
2022-09-14T16:23:53.065Z,98.80
2022-09-14T16:26:27.253Z,98.59
2022-09-14T16:28:56.097Z,98.12
2022-09-14T16:31:28.434Z,98.70
2022-09-14T16:34:03.572Z,98.71
2022-09-14T16:36:42.333Z,99.96
2022-09-14T16:39:20.493Z,99.73
2022-09-14T16:41:48.922Z,99.55
2022-09-14T16:44:23.482Z,100.00
2022-09-14T16:46:53.149Z,100.00
2022-09-14T16:49:26.568Z,100.00
2022-09-14T16:51:56.648Z,100.00
2022-09-14T16:54:26.469Z,100.00
2022-09-14T16:56:58.228Z,100.00
2022-09-14T16:59:27.186Z,100.00
2022-09-14T17:01:56.260Z,100.00
2022-09-14T17:04:26.135Z,100.00
2022-09-14T17:06:56.069Z,100.00
2022-09-14T17:09:30.747Z,100.00
2022-09-14T17:11:59.685Z,100.00
2022-09-14T17:14:31.928Z,100.00
2022-09-14T17:17:00.968Z,100.00
2022-09-14T17:19:29.992Z,100.00
2022-09-14T17:21:58.494Z,100.00
2022-09-14T17:24:27.038Z,100.00
2022-09-14T17:26:55.389Z,100.00
2022-09-14T17:29:23.563Z,100.00
2022-09-14T17:31:51.928Z,100.00
2022-09-14T17:34:20.596Z,100.00
2022-09-14T17:36:49.029Z,100.00
2022-09-14T17:39:17.434Z,100.00
2022-09-14T17:41:46.332Z,100.00
2022-09-14T17:44:16.152Z,100.00
2022-09-14T17:46:52.090Z,100.00
2022-09-14T17:49:23.435Z,100.00
2022-09-14T17:51:52.385Z,100.00
2022-09-14T17:54:22.498Z,100.00
2022-09-14T17:56:51.315Z,100.00
2022-09-14T17:59:21.340Z,100.00
2022-09-14T18:01:52.442Z,100.00
2022-09-14T18:04:20.864Z,100.00
2022-09-14T18:06:50.439Z,100.00
2022-09-14T18:09:24.067Z,100.00
2022-09-14T18:11:56.527Z,100.00
2022-09-14T18:14:25.526Z,100.00
2022-09-14T18:16:53.930Z,100.00
2022-09-14T18:19:22.597Z,100.00
2022-09-14T18:21:52.857Z,100.00
2022-09-14T18:24:21.734Z,100.00
2022-09-14T18:26:50.079Z,100.00
2022-09-14T18:29:23.276Z,100.00
2022-09-14T18:31:54.939Z,100.00
2022-09-14T18:34:24.192Z,100.00
2022-09-14T18:36:53.020Z,100.00
2022-09-14T18:39:21.464Z,100.00
2022-09-14T18:41:56.239Z,100.00
2022-09-14T18:44:25.119Z,100.00
2022-09-14T18:46:53.989Z,100.00
2022-09-14T18:49:22.625Z,100.00
2022-09-14T18:51:51.100Z,100.00
2022-09-14T18:54:22.215Z,100.00
2022-09-14T18:56:52.769Z,100.00
2022-09-14T18:59:20.865Z,100.00
2022-09-14T19:01:49.292Z,100.00
2022-09-14T19:04:17.681Z,100.00
2022-09-14T19:06:46.157Z,100.00
2022-09-14T19:09:14.505Z,100.00
2022-09-14T19:11:43.181Z,100.00
2022-09-14T19:14:13.864Z,100.00
2022-09-14T19:16:42.805Z,100.00
2022-09-14T19:19:14.867Z,100.00
2022-09-14T19:21:44.131Z,100.00
2022-09-14T19:24:15.568Z,100.00
2022-09-14T19:26:51.045Z,100.00
2022-09-14T19:29:23.096Z,100.00
2022-09-14T19:31:52.257Z,100.00
2022-09-14T19:34:22.564Z,100.00
2022-09-14T19:36:51.930Z,100.00
2022-09-14T19:39:20.837Z,100.00
2022-09-14T19:41:49.188Z,100.00
2022-09-14T19:44:17.934Z,100.00
2022-09-14T19:46:46.486Z,100.00
2022-09-14T19:49:26.388Z,100.00
2022-09-14T19:51:55.003Z,100.00
2022-09-14T19:54:24.947Z,100.00
2022-09-14T19:56:53.401Z,100.00
2022-09-14T19:59:21.881Z,100.00
2022-09-14T20:01:50.988Z,100.00
2022-09-14T20:04:19.476Z,100.00
2022-09-14T20:06:49.025Z,100.00
2022-09-14T20:09:21.821Z,100.00
2022-09-14T20:11:52.721Z,100.00
2022-09-14T20:14:24.753Z,100.00
2022-09-14T20:16:57.098Z,100.00
2022-09-14T20:19:28.741Z,100.00
2022-09-14T20:21:57.738Z,100.00
2022-09-14T20:24:28.895Z,100.00
2022-09-14T20:27:00.408Z,100.00
2022-09-14T20:29:31.150Z,100.00
2022-09-14T20:32:00.055Z,100.00
2022-09-14T20:34:28.626Z,100.00
2022-09-14T20:36:57.402Z,100.00
2022-09-14T20:39:25.763Z,100.00
2022-09-14T20:41:54.190Z,100.00
2022-09-14T20:44:23.317Z,100.00
2022-09-14T20:46:52.611Z,100.00
2022-09-14T20:49:23.339Z,100.00
2022-09-14T20:51:54.292Z,100.00
2022-09-14T20:54:22.635Z,100.00
2022-09-14T20:56:51.097Z,100.00
2022-09-14T20:59:22.238Z,100.00
2022-09-14T21:01:52.658Z,100.00
2022-09-14T21:04:23.849Z,100.00
2022-09-14T21:06:55.401Z,100.00
2022-09-14T21:09:26.243Z,100.00
2022-09-14T21:11:55.145Z,100.00
2022-09-14T21:14:23.580Z,100.00
2022-09-14T21:16:55.561Z,100.00
2022-09-14T21:19:29.171Z,100.00
2022-09-14T21:21:58.095Z,100.00
2022-09-14T21:24:26.845Z,100.00
2022-09-14T21:26:56.628Z,100.00
2022-09-14T21:29:25.047Z,100.00
2022-09-14T21:31:53.953Z,100.00
2022-09-14T21:34:22.803Z,100.00
2022-09-14T21:36:52.799Z,100.00
2022-09-14T21:39:24.848Z,100.00
2022-09-14T21:41:58.818Z,100.00
2022-09-14T21:44:37.798Z,100.00
2022-09-14T21:47:06.398Z,100.00
2022-09-14T21:49:34.884Z,100.00
2022-09-14T21:52:03.444Z,100.00
2022-09-14T21:54:32.051Z,100.00
2022-09-14T21:57:00.541Z,100.00
2022-09-14T21:59:28.838Z,100.00
2022-09-14T22:01:57.281Z,100.00
2022-09-14T22:04:26.900Z,100.00
2022-09-14T22:06:57.179Z,100.00
2022-09-14T22:09:29.345Z,100.00
2022-09-14T22:11:58.095Z,100.00
2022-09-14T22:14:29.673Z,100.00
2022-09-14T22:16:58.025Z,100.00
2022-09-14T22:19:30.204Z,100.00
2022-09-14T22:21:59.250Z,100.00
2022-09-14T22:24:38.107Z,100.00
2022-09-14T22:27:09.324Z,100.00
2022-09-14T22:29:38.809Z,100.00
2022-09-14T22:32:08.533Z,100.00
2022-09-14T22:34:36.902Z,100.00
2022-09-14T22:37:05.317Z,100.00
2022-09-14T22:39:33.712Z,100.00
2022-09-14T22:42:02.587Z,100.00
2022-09-14T22:44:30.970Z,100.00
2022-09-14T22:46:59.312Z,100.00
2022-09-14T22:49:27.673Z,100.00
2022-09-14T22:51:56.058Z,100.00
2022-09-14T22:54:24.473Z,100.00
2022-09-14T22:56:52.786Z,100.00
2022-09-14T22:59:21.112Z,100.00
2022-09-14T23:01:49.529Z,100.00
2022-09-14T23:04:17.901Z,100.00
2022-09-14T23:06:48.509Z,100.00
2022-09-14T23:09:21.916Z,100.00
2022-09-14T23:11:51.297Z,100.00
2022-09-14T23:14:19.715Z,100.00
2022-09-14T23:16:48.119Z,100.00
2022-09-14T23:19:19.208Z,100.00
2022-09-14T23:21:47.856Z,100.00
2022-09-14T23:24:16.613Z,100.00
2022-09-14T23:26:45.174Z,100.00
2022-09-14T23:29:17.087Z,100.00
2022-09-14T23:31:45.608Z,100.00
2022-09-14T23:34:14.204Z,100.00
2022-09-14T23:36:42.611Z,100.00
2022-09-14T23:39:10.977Z,100.00
2022-09-14T23:41:40.380Z,100.00
2022-09-14T23:44:09.929Z,100.00
2022-09-14T23:46:38.302Z,100.00
2022-09-14T23:49:06.849Z,100.00
2022-09-14T23:51:35.171Z,100.00
2022-09-14T23:54:03.517Z,100.00
2022-09-14T23:56:32.362Z,100.00
2022-09-14T23:59:00.755Z,100.00
